sensor_id;sensor_type;location;lat;lon;timestamp;temperature;humidity
34873;DHT22;21084;51.098;14.506;2023-04-24T00:00:14;9.20;77.30
34873;DHT22;21084;51.098;14.506;2023-04-24T00:02:43;9.20;77.00
34873;DHT22;21084;51.098;14.506;2023-04-24T00:05:15;9.10;76.50
34873;DHT22;21084;51.098;14.506;2023-04-24T00:07:45;9.10;77.20
34873;DHT22;21084;51.098;14.506;2023-04-24T00:10:13;9.00;76.60
34873;DHT22;21084;51.098;14.506;2023-04-24T00:12:42;9.00;76.40
34873;DHT22;21084;51.098;14.506;2023-04-24T00:15:12;8.90;76.30
34873;DHT22;21084;51.098;14.506;2023-04-24T00:17:41;8.90;77.10
34873;DHT22;21084;51.098;14.506;2023-04-24T00:20:10;8.90;77.00
34873;DHT22;21084;51.098;14.506;2023-04-24T00:22:39;8.90;76.70
34873;DHT22;21084;51.098;14.506;2023-04-24T00:25:08;8.80;76.70
34873;DHT22;21084;51.098;14.506;2023-04-24T00:27:37;8.80;76.90
34873;DHT22;21084;51.098;14.506;2023-04-24T00:30:07;8.80;77.10
34873;DHT22;21084;51.098;14.506;2023-04-24T00:32:37;8.80;77.50
34873;DHT22;21084;51.098;14.506;2023-04-24T00:35:06;8.80;76.80
34873;DHT22;21084;51.098;14.506;2023-04-24T00:37:35;8.70;76.40
34873;DHT22;21084;51.098;14.506;2023-04-24T00:40:05;8.60;76.80
34873;DHT22;21084;51.098;14.506;2023-04-24T00:42:34;8.60;76.90
34873;DHT22;21084;51.098;14.506;2023-04-24T00:45:04;8.60;77.10
34873;DHT22;21084;51.098;14.506;2023-04-24T00:47:33;8.60;77.50
34873;DHT22;21084;51.098;14.506;2023-04-24T00:50:06;8.60;78.10
34873;DHT22;21084;51.098;14.506;2023-04-24T00:52:34;8.70;78.60
34873;DHT22;21084;51.098;14.506;2023-04-24T00:55:05;8.80;78.50
34873;DHT22;21084;51.098;14.506;2023-04-24T00:57:34;9.00;79.30
34873;DHT22;21084;51.098;14.506;2023-04-24T01:00:04;9.10;78.80
34873;DHT22;21084;51.098;14.506;2023-04-24T01:02:39;9.20;79.00
34873;DHT22;21084;51.098;14.506;2023-04-24T01:05:14;9.30;79.10
34873;DHT22;21084;51.098;14.506;2023-04-24T01:07:45;9.50;79.70
34873;DHT22;21084;51.098;14.506;2023-04-24T01:10:16;9.70;78.60
34873;DHT22;21084;51.098;14.506;2023-04-24T01:12:47;9.70;78.20
34873;DHT22;21084;51.098;14.506;2023-04-24T01:15:16;9.90;77.90
34873;DHT22;21084;51.098;14.506;2023-04-24T01:17:44;10.00;77.40
34873;DHT22;21084;51.098;14.506;2023-04-24T01:20:15;10.00;76.70
34873;DHT22;21084;51.098;14.506;2023-04-24T01:22:45;10.00;76.20
34873;DHT22;21084;51.098;14.506;2023-04-24T01:25:14;10.00;76.20
34873;DHT22;21084;51.098;14.506;2023-04-24T01:27:43;10.00;76.00
34873;DHT22;21084;51.098;14.506;2023-04-24T01:30:12;10.00;76.10
34873;DHT22;21084;51.098;14.506;2023-04-24T01:32:42;9.90;76.90
34873;DHT22;21084;51.098;14.506;2023-04-24T01:35:12;9.90;76.90
34873;DHT22;21084;51.098;14.506;2023-04-24T01:37:40;9.90;76.60
34873;DHT22;21084;51.098;14.506;2023-04-24T01:40:11;9.80;76.40
34873;DHT22;21084;51.098;14.506;2023-04-24T01:42:41;9.80;77.50
34873;DHT22;21084;51.098;14.506;2023-04-24T01:45:11;9.90;77.30
34873;DHT22;21084;51.098;14.506;2023-04-24T01:47:40;9.90;77.70
34873;DHT22;21084;51.098;14.506;2023-04-24T01:50:10;9.90;77.90
34873;DHT22;21084;51.098;14.506;2023-04-24T01:52:39;9.90;77.70
34873;DHT22;21084;51.098;14.506;2023-04-24T01:55:09;10.00;76.30
34873;DHT22;21084;51.098;14.506;2023-04-24T01:57:39;9.90;76.00
34873;DHT22;21084;51.098;14.506;2023-04-24T02:00:09;9.90;76.20
34873;DHT22;21084;51.098;14.506;2023-04-24T02:02:39;9.70;75.50
34873;DHT22;21084;51.098;14.506;2023-04-24T02:05:08;9.60;76.10
34873;DHT22;21084;51.098;14.506;2023-04-24T02:07:38;9.40;75.60
34873;DHT22;21084;51.098;14.506;2023-04-24T02:10:07;9.30;75.90
34873;DHT22;21084;51.098;14.506;2023-04-24T02:12:36;9.30;76.70
34873;DHT22;21084;51.098;14.506;2023-04-24T02:15:08;9.20;77.20
34873;DHT22;21084;51.098;14.506;2023-04-24T02:17:36;9.10;76.40
34873;DHT22;21084;51.098;14.506;2023-04-24T02:20:06;9.00;76.90
34873;DHT22;21084;51.098;14.506;2023-04-24T02:22:35;9.00;77.30
34873;DHT22;21084;51.098;14.506;2023-04-24T02:25:05;9.00;77.50
34873;DHT22;21084;51.098;14.506;2023-04-24T02:27:35;9.00;77.50
34873;DHT22;21084;51.098;14.506;2023-04-24T02:30:06;9.00;77.50
34873;DHT22;21084;51.098;14.506;2023-04-24T02:32:36;8.90;77.10
34873;DHT22;21084;51.098;14.506;2023-04-24T02:35:06;8.90;77.50
34873;DHT22;21084;51.098;14.506;2023-04-24T02:37:35;9.00;77.70
34873;DHT22;21084;51.098;14.506;2023-04-24T02:40:05;9.00;77.60
34873;DHT22;21084;51.098;14.506;2023-04-24T02:42:34;9.00;77.90
34873;DHT22;21084;51.098;14.506;2023-04-24T02:45:04;9.00;78.10
34873;DHT22;21084;51.098;14.506;2023-04-24T02:47:34;9.00;78.00
34873;DHT22;21084;51.098;14.506;2023-04-24T02:50:03;9.00;78.50
34873;DHT22;21084;51.098;14.506;2023-04-24T02:52:32;9.10;78.30
34873;DHT22;21084;51.098;14.506;2023-04-24T02:55:01;9.10;78.70
34873;DHT22;21084;51.098;14.506;2023-04-24T02:57:29;9.10;78.70
34873;DHT22;21084;51.098;14.506;2023-04-24T02:59:58;9.50;79.60
34873;DHT22;21084;51.098;14.506;2023-04-24T03:02:27;9.60;79.70
34873;DHT22;21084;51.098;14.506;2023-04-24T03:04:58;9.80;79.50
34873;DHT22;21084;51.098;14.506;2023-04-24T03:07:27;10.00;78.10
34873;DHT22;21084;51.098;14.506;2023-04-24T03:09:55;10.10;78.20
34873;DHT22;21084;51.098;14.506;2023-04-24T03:12:25;10.20;77.60
34873;DHT22;21084;51.098;14.506;2023-04-24T03:14:53;10.40;77.40
34873;DHT22;21084;51.098;14.506;2023-04-24T03:17:22;10.40;77.20
34873;DHT22;21084;51.098;14.506;2023-04-24T03:19:51;10.50;76.80
34873;DHT22;21084;51.098;14.506;2023-04-24T03:22:21;10.60;77.00
34873;DHT22;21084;51.098;14.506;2023-04-24T03:24:50;10.70;77.40
34873;DHT22;21084;51.098;14.506;2023-04-24T03:27:18;10.70;76.50
34873;DHT22;21084;51.098;14.506;2023-04-24T03:29:47;10.80;76.50
34873;DHT22;21084;51.098;14.506;2023-04-24T03:32:18;10.70;76.10
34873;DHT22;21084;51.098;14.506;2023-04-24T03:34:47;10.70;76.10
34873;DHT22;21084;51.098;14.506;2023-04-24T03:37:16;10.70;76.50
34873;DHT22;21084;51.098;14.506;2023-04-24T03:39:46;10.70;76.40
34873;DHT22;21084;51.098;14.506;2023-04-24T03:42:14;10.60;76.50
34873;DHT22;21084;51.098;14.506;2023-04-24T03:44:43;10.60;76.30
34873;DHT22;21084;51.098;14.506;2023-04-24T03:47:12;10.60;76.30
34873;DHT22;21084;51.098;14.506;2023-04-24T03:49:41;10.50;76.70
34873;DHT22;21084;51.098;14.506;2023-04-24T03:52:10;10.50;76.50
34873;DHT22;21084;51.098;14.506;2023-04-24T03:54:39;10.50;76.50
34873;DHT22;21084;51.098;14.506;2023-04-24T03:57:09;10.50;76.90
34873;DHT22;21084;51.098;14.506;2023-04-24T03:59:38;10.40;76.80
34873;DHT22;21084;51.098;14.506;2023-04-24T04:02:07;10.40;77.00
34873;DHT22;21084;51.098;14.506;2023-04-24T04:04:35;10.40;76.40
34873;DHT22;21084;51.098;14.506;2023-04-24T04:07:05;10.30;75.80
34873;DHT22;21084;51.098;14.506;2023-04-24T04:09:35;10.20;76.00
34873;DHT22;21084;51.098;14.506;2023-04-24T04:12:04;10.10;76.10
34873;DHT22;21084;51.098;14.506;2023-04-24T04:14:33;10.10;76.20
34873;DHT22;21084;51.098;14.506;2023-04-24T04:17:02;10.00;76.10
34873;DHT22;21084;51.098;14.506;2023-04-24T04:19:31;10.00;76.40
34873;DHT22;21084;51.098;14.506;2023-04-24T04:22:00;10.00;76.60
34873;DHT22;21084;51.098;14.506;2023-04-24T04:24:28;10.00;76.70
34873;DHT22;21084;51.098;14.506;2023-04-24T04:26:57;10.00;76.60
34873;DHT22;21084;51.098;14.506;2023-04-24T04:29:26;10.00;76.90
34873;DHT22;21084;51.098;14.506;2023-04-24T04:31:57;10.00;76.50
34873;DHT22;21084;51.098;14.506;2023-04-24T04:34:25;10.00;76.60
34873;DHT22;21084;51.098;14.506;2023-04-24T04:36:54;10.00;76.70
34873;DHT22;21084;51.098;14.506;2023-04-24T04:39:23;10.10;76.90
34873;DHT22;21084;51.098;14.506;2023-04-24T04:41:52;10.10;77.00
34873;DHT22;21084;51.098;14.506;2023-04-24T04:44:21;10.20;77.10
34873;DHT22;21084;51.098;14.506;2023-04-24T04:46:50;10.30;77.20
34873;DHT22;21084;51.098;14.506;2023-04-24T04:49:21;10.40;77.40
34873;DHT22;21084;51.098;14.506;2023-04-24T04:51:50;10.60;77.50
34873;DHT22;21084;51.098;14.506;2023-04-24T04:54:20;10.70;77.60
34873;DHT22;21084;51.098;14.506;2023-04-24T04:56:50;11.00;77.60
34873;DHT22;21084;51.098;14.506;2023-04-24T04:59:18;11.20;77.60
34873;DHT22;21084;51.098;14.506;2023-04-24T05:01:47;11.30;76.60
34873;DHT22;21084;51.098;14.506;2023-04-24T05:04:16;11.40;76.60
34873;DHT22;21084;51.098;14.506;2023-04-24T05:06:46;11.60;76.50
34873;DHT22;21084;51.098;14.506;2023-04-24T05:09:15;11.70;75.60
34873;DHT22;21084;51.098;14.506;2023-04-24T05:11:43;11.70;75.70
34873;DHT22;21084;51.098;14.506;2023-04-24T05:14:12;11.80;75.70
34873;DHT22;21084;51.098;14.506;2023-04-24T05:16:41;11.90;75.60
34873;DHT22;21084;51.098;14.506;2023-04-24T05:19:10;12.00;74.80
34873;DHT22;21084;51.098;14.506;2023-04-24T05:21:39;12.10;74.60
34873;DHT22;21084;51.098;14.506;2023-04-24T05:24:09;12.20;74.40
34873;DHT22;21084;51.098;14.506;2023-04-24T05:26:37;12.20;74.90
34873;DHT22;21084;51.098;14.506;2023-04-24T05:29:06;12.30;74.30
34873;DHT22;21084;51.098;14.506;2023-04-24T05:31:35;12.40;74.00
34873;DHT22;21084;51.098;14.506;2023-04-24T05:34:04;12.40;74.10
34873;DHT22;21084;51.098;14.506;2023-04-24T05:36:33;12.50;74.10
34873;DHT22;21084;51.098;14.506;2023-04-24T05:39:01;12.60;72.90
34873;DHT22;21084;51.098;14.506;2023-04-24T05:41:36;12.70;73.20
34873;DHT22;21084;51.098;14.506;2023-04-24T05:44:04;12.70;72.90
34873;DHT22;21084;51.098;14.506;2023-04-24T05:46:34;12.70;73.00
34873;DHT22;21084;51.098;14.506;2023-04-24T05:49:02;12.70;72.70
34873;DHT22;21084;51.098;14.506;2023-04-24T05:51:31;12.70;72.80
34873;DHT22;21084;51.098;14.506;2023-04-24T05:54:00;12.70;72.00
34873;DHT22;21084;51.098;14.506;2023-04-24T05:56:30;12.60;71.20
34873;DHT22;21084;51.098;14.506;2023-04-24T05:59:01;12.50;71.10
34873;DHT22;21084;51.098;14.506;2023-04-24T06:01:30;12.50;71.60
34873;DHT22;21084;51.098;14.506;2023-04-24T06:04:00;12.60;71.80
34873;DHT22;21084;51.098;14.506;2023-04-24T06:06:28;12.70;71.40
34873;DHT22;21084;51.098;14.506;2023-04-24T06:08:57;12.90;72.40
34873;DHT22;21084;51.098;14.506;2023-04-24T06:11:26;13.10;72.70
34873;DHT22;21084;51.098;14.506;2023-04-24T06:13:54;13.20;71.70
34873;DHT22;21084;51.098;14.506;2023-04-24T06:16:24;13.40;72.20
34873;DHT22;21084;51.098;14.506;2023-04-24T06:18:52;13.40;70.60
34873;DHT22;21084;51.098;14.506;2023-04-24T06:21:20;13.50;70.30
34873;DHT22;21084;51.098;14.506;2023-04-24T06:23:49;13.50;70.00
34873;DHT22;21084;51.098;14.506;2023-04-24T06:26:17;13.70;71.80
34873;DHT22;21084;51.098;14.506;2023-04-24T06:28:47;13.70;69.70
34873;DHT22;21084;51.098;14.506;2023-04-24T06:31:16;13.90;71.20
34873;DHT22;21084;51.098;14.506;2023-04-24T06:33:48;14.00;70.50
34873;DHT22;21084;51.098;14.506;2023-04-24T06:36:17;14.10;70.00
34873;DHT22;21084;51.098;14.506;2023-04-24T06:38:45;14.10;69.40
34873;DHT22;21084;51.098;14.506;2023-04-24T06:41:13;14.20;69.00
34873;DHT22;21084;51.098;14.506;2023-04-24T06:43:42;14.10;67.80
34873;DHT22;21084;51.098;14.506;2023-04-24T06:46:10;14.10;68.80
34873;DHT22;21084;51.098;14.506;2023-04-24T06:48:39;13.90;68.10
34873;DHT22;21084;51.098;14.506;2023-04-24T06:51:09;13.90;68.70
34873;DHT22;21084;51.098;14.506;2023-04-24T06:53:37;13.90;68.60
34873;DHT22;21084;51.098;14.506;2023-04-24T06:56:06;13.80;68.50
34873;DHT22;21084;51.098;14.506;2023-04-24T06:58:35;13.70;68.50
34873;DHT22;21084;51.098;14.506;2023-04-24T07:01:04;13.70;68.60
34873;DHT22;21084;51.098;14.506;2023-04-24T07:03:32;13.70;68.80
34873;DHT22;21084;51.098;14.506;2023-04-24T07:06:01;13.70;68.70
34873;DHT22;21084;51.098;14.506;2023-04-24T07:08:31;13.70;67.90
34873;DHT22;21084;51.098;14.506;2023-04-24T07:11:00;13.70;68.10
34873;DHT22;21084;51.098;14.506;2023-04-24T07:13:28;13.70;67.80
34873;DHT22;21084;51.098;14.506;2023-04-24T07:15:57;13.70;67.40
34873;DHT22;21084;51.098;14.506;2023-04-24T07:18:26;13.80;67.50
34873;DHT22;21084;51.098;14.506;2023-04-24T07:20:54;13.90;67.00
34873;DHT22;21084;51.098;14.506;2023-04-24T07:23:23;14.10;67.40
34873;DHT22;21084;51.098;14.506;2023-04-24T07:25:53;14.20;66.40
34873;DHT22;21084;51.098;14.506;2023-04-24T07:28:22;14.10;63.90
34873;DHT22;21084;51.098;14.506;2023-04-24T07:30:50;14.00;62.60
34873;DHT22;21084;51.098;14.506;2023-04-24T07:33:21;13.90;62.50
34873;DHT22;21084;51.098;14.506;2023-04-24T07:35:50;13.70;64.70
34873;DHT22;21084;51.098;14.506;2023-04-24T07:38:18;13.70;64.30
34873;DHT22;21084;51.098;14.506;2023-04-24T07:40:49;13.60;63.00
34873;DHT22;21084;51.098;14.506;2023-04-24T07:43:20;13.50;63.20
34873;DHT22;21084;51.098;14.506;2023-04-24T07:45:49;13.50;63.10
34873;DHT22;21084;51.098;14.506;2023-04-24T07:48:18;13.60;64.20
34873;DHT22;21084;51.098;14.506;2023-04-24T07:50:48;13.70;64.50
34873;DHT22;21084;51.098;14.506;2023-04-24T07:53:16;13.90;64.00
34873;DHT22;21084;51.098;14.506;2023-04-24T07:55:46;14.10;63.90
34873;DHT22;21084;51.098;14.506;2023-04-24T07:58:14;14.30;64.20
34873;DHT22;21084;51.098;14.506;2023-04-24T08:00:44;14.30;62.80
34873;DHT22;21084;51.098;14.506;2023-04-24T08:03:12;14.40;64.30
34873;DHT22;21084;51.098;14.506;2023-04-24T08:05:41;14.50;63.30
34873;DHT22;21084;51.098;14.506;2023-04-24T08:08:10;14.70;62.30
34873;DHT22;21084;51.098;14.506;2023-04-24T08:10:39;14.70;61.40
34873;DHT22;21084;51.098;14.506;2023-04-24T08:13:08;14.60;63.10
34873;DHT22;21084;51.098;14.506;2023-04-24T08:15:38;14.70;62.10
34873;DHT22;21084;51.098;14.506;2023-04-24T08:18:08;14.60;61.20
34873;DHT22;21084;51.098;14.506;2023-04-24T08:20:39;14.40;61.60
34873;DHT22;21084;51.098;14.506;2023-04-24T08:23:08;14.30;62.90
34873;DHT22;21084;51.098;14.506;2023-04-24T08:25:37;14.40;63.20
34873;DHT22;21084;51.098;14.506;2023-04-24T08:28:06;14.50;62.10
34873;DHT22;21084;51.098;14.506;2023-04-24T08:30:37;14.60;61.10
34873;DHT22;21084;51.098;14.506;2023-04-24T08:33:06;14.40;61.60
34873;DHT22;21084;51.098;14.506;2023-04-24T08:35:36;14.40;61.80
34873;DHT22;21084;51.098;14.506;2023-04-24T08:38:06;14.50;61.70
34873;DHT22;21084;51.098;14.506;2023-04-24T08:40:35;14.50;62.30
34873;DHT22;21084;51.098;14.506;2023-04-24T08:43:05;14.80;62.00
34873;DHT22;21084;51.098;14.506;2023-04-24T08:45:35;14.70;61.20
34873;DHT22;21084;51.098;14.506;2023-04-24T08:48:04;14.70;61.60
34873;DHT22;21084;51.098;14.506;2023-04-24T08:50:48;14.90;61.60
34873;DHT22;21084;51.098;14.506;2023-04-24T08:53:18;15.10;60.70
34873;DHT22;21084;51.098;14.506;2023-04-24T08:55:48;15.40;61.10
34873;DHT22;21084;51.098;14.506;2023-04-24T08:58:19;15.30;60.80
34873;DHT22;21084;51.098;14.506;2023-04-24T09:00:47;15.30;60.30
34873;DHT22;21084;51.098;14.506;2023-04-24T09:03:17;15.10;59.70
34873;DHT22;21084;51.098;14.506;2023-04-24T09:05:48;15.20;60.50
34873;DHT22;21084;51.098;14.506;2023-04-24T09:08:19;15.50;60.00
34873;DHT22;21084;51.098;14.506;2023-04-24T09:10:48;16.40;59.50
34873;DHT22;21084;51.098;14.506;2023-04-24T09:13:18;16.30;57.40
34873;DHT22;21084;51.098;14.506;2023-04-24T09:15:47;16.30;58.70
34873;DHT22;21084;51.098;14.506;2023-04-24T09:18:17;16.60;57.80
34873;DHT22;21084;51.098;14.506;2023-04-24T09:20:57;16.40;56.30
34873;DHT22;21084;51.098;14.506;2023-04-24T09:23:28;16.60;56.80
34873;DHT22;21084;51.098;14.506;2023-04-24T09:25:58;17.20;57.10
34873;DHT22;21084;51.098;14.506;2023-04-24T09:28:28;17.00;56.00
34873;DHT22;21084;51.098;14.506;2023-04-24T09:31:05;17.50;57.20
34873;DHT22;21084;51.098;14.506;2023-04-24T09:33:34;17.90;55.70
34873;DHT22;21084;51.098;14.506;2023-04-24T09:36:05;17.50;55.20
34873;DHT22;21084;51.098;14.506;2023-04-24T09:38:34;17.50;53.90
34873;DHT22;21084;51.098;14.506;2023-04-24T09:41:06;16.80;55.10
34873;DHT22;21084;51.098;14.506;2023-04-24T09:43:35;16.70;56.60
34873;DHT22;21084;51.098;14.506;2023-04-24T09:46:05;16.50;54.60
34873;DHT22;21084;51.098;14.506;2023-04-24T09:48:37;16.20;56.60
34873;DHT22;21084;51.098;14.506;2023-04-24T09:51:07;16.40;56.90
34873;DHT22;21084;51.098;14.506;2023-04-24T09:53:38;17.00;55.70
34873;DHT22;21084;51.098;14.506;2023-04-24T09:56:08;16.70;54.20
34873;DHT22;21084;51.098;14.506;2023-04-24T09:58:37;16.40;54.20
34873;DHT22;21084;51.098;14.506;2023-04-24T10:01:05;16.60;54.00
34873;DHT22;21084;51.098;14.506;2023-04-24T10:03:35;16.40;54.70
34873;DHT22;21084;51.098;14.506;2023-04-24T10:06:04;16.20;52.80
34873;DHT22;21084;51.098;14.506;2023-04-24T10:08:38;16.40;54.20
34873;DHT22;21084;51.098;14.506;2023-04-24T10:11:07;16.40;55.20
34873;DHT22;21084;51.098;14.506;2023-04-24T10:13:39;16.80;55.30
34873;DHT22;21084;51.098;14.506;2023-04-24T10:16:08;16.90;55.80
34873;DHT22;21084;51.098;14.506;2023-04-24T10:18:37;16.60;54.60
34873;DHT22;21084;51.098;14.506;2023-04-24T10:21:07;15.90;55.60
34873;DHT22;21084;51.098;14.506;2023-04-24T10:23:37;15.70;57.20
34873;DHT22;21084;51.098;14.506;2023-04-24T10:26:06;15.80;57.00
34873;DHT22;21084;51.098;14.506;2023-04-24T10:28:37;15.80;57.60
34873;DHT22;21084;51.098;14.506;2023-04-24T10:31:07;15.80;57.60
34873;DHT22;21084;51.098;14.506;2023-04-24T10:33:38;15.80;57.30
34873;DHT22;21084;51.098;14.506;2023-04-24T10:36:12;15.70;56.90
34873;DHT22;21084;51.098;14.506;2023-04-24T10:38:44;15.10;58.70
34873;DHT22;21084;51.098;14.506;2023-04-24T10:41:18;15.00;58.90
34873;DHT22;21084;51.098;14.506;2023-04-24T10:44:04;14.90;59.60
34873;DHT22;21084;51.098;14.506;2023-04-24T10:46:33;14.30;62.30
34873;DHT22;21084;51.098;14.506;2023-04-24T10:49:04;13.50;65.00
34873;DHT22;21084;51.098;14.506;2023-04-24T10:51:46;13.10;67.50
34873;DHT22;21084;51.098;14.506;2023-04-24T10:54:24;13.10;69.20
34873;DHT22;21084;51.098;14.506;2023-04-24T10:56:53;12.90;69.30
34873;DHT22;21084;51.098;14.506;2023-04-24T10:59:26;12.70;68.80
34873;DHT22;21084;51.098;14.506;2023-04-24T11:01:55;12.80;71.10
34873;DHT22;21084;51.098;14.506;2023-04-24T11:04:30;13.10;70.80
34873;DHT22;21084;51.098;14.506;2023-04-24T11:07:00;13.30;69.70
34873;DHT22;21084;51.098;14.506;2023-04-24T11:09:30;13.40;69.50
34873;DHT22;21084;51.098;14.506;2023-04-24T11:12:04;13.60;69.50
34873;DHT22;21084;51.098;14.506;2023-04-24T11:15:00;13.60;68.10
34873;DHT22;21084;51.098;14.506;2023-04-24T11:17:30;13.70;68.50
34873;DHT22;21084;51.098;14.506;2023-04-24T11:20:04;14.10;66.00
34873;DHT22;21084;51.098;14.506;2023-04-24T11:22:54;14.20;64.90
34873;DHT22;21084;51.098;14.506;2023-04-24T11:25:30;14.50;65.50
34873;DHT22;21084;51.098;14.506;2023-04-24T11:28:14;15.10;66.80
34873;DHT22;21084;51.098;14.506;2023-04-24T11:30:43;15.50;63.60
34873;DHT22;21084;51.098;14.506;2023-04-24T11:33:19;15.60;61.80
34873;DHT22;21084;51.098;14.506;2023-04-24T11:35:51;15.90;61.90
34873;DHT22;21084;51.098;14.506;2023-04-24T11:38:19;16.10;62.80
34873;DHT22;21084;51.098;14.506;2023-04-24T11:40:53;16.30;61.30
34873;DHT22;21084;51.098;14.506;2023-04-24T11:43:22;15.70;60.80
34873;DHT22;21084;51.098;14.506;2023-04-24T11:45:51;15.70;62.10
34873;DHT22;21084;51.098;14.506;2023-04-24T11:48:21;15.80;61.20
34873;DHT22;21084;51.098;14.506;2023-04-24T11:50:50;15.70;60.80
34873;DHT22;21084;51.098;14.506;2023-04-24T11:53:20;15.90;61.20
34873;DHT22;21084;51.098;14.506;2023-04-24T11:55:49;16.50;59.50
34873;DHT22;21084;51.098;14.506;2023-04-24T11:58:22;16.70;59.30
34873;DHT22;21084;51.098;14.506;2023-04-24T12:00:56;17.00;57.00
34873;DHT22;21084;51.098;14.506;2023-04-24T12:03:25;16.70;55.50
34873;DHT22;21084;51.098;14.506;2023-04-24T12:06:04;16.90;56.20
34873;DHT22;21084;51.098;14.506;2023-04-24T12:08:34;16.90;56.30
34873;DHT22;21084;51.098;14.506;2023-04-24T12:11:06;16.60;55.30
34873;DHT22;21084;51.098;14.506;2023-04-24T12:13:37;17.10;56.60
34873;DHT22;21084;51.098;14.506;2023-04-24T12:16:05;17.10;53.90
34873;DHT22;21084;51.098;14.506;2023-04-24T12:18:34;17.50;55.20
34873;DHT22;21084;51.098;14.506;2023-04-24T12:21:17;17.80;55.20
34873;DHT22;21084;51.098;14.506;2023-04-24T12:23:49;18.50;54.30
34873;DHT22;21084;51.098;14.506;2023-04-24T12:26:18;19.10;52.60
34873;DHT22;21084;51.098;14.506;2023-04-24T12:28:50;19.60;50.70
34873;DHT22;21084;51.098;14.506;2023-04-24T12:31:20;19.80;51.10
34873;DHT22;21084;51.098;14.506;2023-04-24T12:33:49;21.10;51.10
34873;DHT22;21084;51.098;14.506;2023-04-24T12:36:17;20.80;47.50
34873;DHT22;21084;51.098;14.506;2023-04-24T12:38:46;20.20;46.60
34873;DHT22;21084;51.098;14.506;2023-04-24T12:41:20;20.20;47.40
34873;DHT22;21084;51.098;14.506;2023-04-24T12:43:53;19.60;48.40
34873;DHT22;21084;51.098;14.506;2023-04-24T12:46:22;19.30;47.00
34873;DHT22;21084;51.098;14.506;2023-04-24T12:48:51;19.00;49.80
34873;DHT22;21084;51.098;14.506;2023-04-24T12:51:20;18.70;50.20
34873;DHT22;21084;51.098;14.506;2023-04-24T12:53:49;18.90;50.90
34873;DHT22;21084;51.098;14.506;2023-04-24T12:56:17;19.20;50.00
34873;DHT22;21084;51.098;14.506;2023-04-24T12:58:46;19.00;50.00
34873;DHT22;21084;51.098;14.506;2023-04-24T13:01:16;17.60;50.90
34873;DHT22;21084;51.098;14.506;2023-04-24T13:03:45;16.90;52.10
34873;DHT22;21084;51.098;14.506;2023-04-24T13:06:14;16.60;53.10
34873;DHT22;21084;51.098;14.506;2023-04-24T13:08:42;16.20;53.80
34873;DHT22;21084;51.098;14.506;2023-04-24T13:11:11;15.50;56.70
34873;DHT22;21084;51.098;14.506;2023-04-24T13:13:40;14.40;60.00
34873;DHT22;21084;51.098;14.506;2023-04-24T13:16:09;13.80;58.10
34873;DHT22;21084;51.098;14.506;2023-04-24T13:18:39;13.80;61.00
34873;DHT22;21084;51.098;14.506;2023-04-24T13:21:07;13.80;62.50
34873;DHT22;21084;51.098;14.506;2023-04-24T13:23:36;13.90;62.60
34873;DHT22;21084;51.098;14.506;2023-04-24T13:26:04;14.10;61.20
34873;DHT22;21084;51.098;14.506;2023-04-24T13:28:33;14.30;61.40
34873;DHT22;21084;51.098;14.506;2023-04-24T13:31:01;14.60;61.50
34873;DHT22;21084;51.098;14.506;2023-04-24T13:33:30;14.80;62.50
34873;DHT22;21084;51.098;14.506;2023-04-24T13:36:00;15.00;63.40
34873;DHT22;21084;51.098;14.506;2023-04-24T13:38:28;15.00;62.20
34873;DHT22;21084;51.098;14.506;2023-04-24T13:40:56;15.30;62.20
34873;DHT22;21084;51.098;14.506;2023-04-24T13:43:25;15.60;61.70
34873;DHT22;21084;51.098;14.506;2023-04-24T13:45:53;16.10;60.80
34873;DHT22;21084;51.098;14.506;2023-04-24T13:48:22;16.50;58.90
34873;DHT22;21084;51.098;14.506;2023-04-24T13:50:50;17.00;58.30
34873;DHT22;21084;51.098;14.506;2023-04-24T13:53:20;16.90;55.00
34873;DHT22;21084;51.098;14.506;2023-04-24T13:55:48;16.50;55.60
34873;DHT22;21084;51.098;14.506;2023-04-24T13:58:17;16.10;55.70
34873;DHT22;21084;51.098;14.506;2023-04-24T14:00:45;16.00;56.40
34873;DHT22;21084;51.098;14.506;2023-04-24T14:03:14;15.60;57.30
34873;DHT22;21084;51.098;14.506;2023-04-24T14:05:43;15.30;58.60
34873;DHT22;21084;51.098;14.506;2023-04-24T14:08:12;15.40;60.90
34873;DHT22;21084;51.098;14.506;2023-04-24T14:10:42;15.50;60.40
34873;DHT22;21084;51.098;14.506;2023-04-24T14:13:11;15.60;58.40
34873;DHT22;21084;51.098;14.506;2023-04-24T14:15:39;15.50;57.40
34873;DHT22;21084;51.098;14.506;2023-04-24T14:18:08;15.30;58.10
34873;DHT22;21084;51.098;14.506;2023-04-24T14:20:38;15.40;55.80
34873;DHT22;21084;51.098;14.506;2023-04-24T14:23:07;15.20;53.30
34873;DHT22;21084;51.098;14.506;2023-04-24T14:25:35;15.10;50.80
34873;DHT22;21084;51.098;14.506;2023-04-24T14:28:07;15.00;49.00
34873;DHT22;21084;51.098;14.506;2023-04-24T14:30:36;14.70;49.30
34873;DHT22;21084;51.098;14.506;2023-04-24T14:33:07;14.60;49.60
34873;DHT22;21084;51.098;14.506;2023-04-24T14:35:36;14.50;49.70
34873;DHT22;21084;51.098;14.506;2023-04-24T14:38:05;14.30;49.00
34873;DHT22;21084;51.098;14.506;2023-04-24T14:40:33;14.30;48.90
34873;DHT22;21084;51.098;14.506;2023-04-24T14:43:24;14.30;49.10
34873;DHT22;21084;51.098;14.506;2023-04-24T14:45:53;14.50;49.00
34873;DHT22;21084;51.098;14.506;2023-04-24T14:48:21;14.60;49.20
34873;DHT22;21084;51.098;14.506;2023-04-24T14:50:50;14.80;48.70
34873;DHT22;21084;51.098;14.506;2023-04-24T14:53:19;14.90;47.70
34873;DHT22;21084;51.098;14.506;2023-04-24T14:55:47;14.90;48.60
34873;DHT22;21084;51.098;14.506;2023-04-24T14:58:16;15.00;47.80
34873;DHT22;21084;51.098;14.506;2023-04-24T15:00:46;15.00;47.50
34873;DHT22;21084;51.098;14.506;2023-04-24T15:03:17;14.80;46.50
34873;DHT22;21084;51.098;14.506;2023-04-24T15:05:48;14.90;45.50
34873;DHT22;21084;51.098;14.506;2023-04-24T15:08:16;14.80;43.20
34873;DHT22;21084;51.098;14.506;2023-04-24T15:10:46;14.90;44.00
34873;DHT22;21084;51.098;14.506;2023-04-24T15:13:15;14.90;43.00
34873;DHT22;21084;51.098;14.506;2023-04-24T15:15:45;14.80;42.40
34873;DHT22;21084;51.098;14.506;2023-04-24T15:18:16;14.90;42.80
34873;DHT22;21084;51.098;14.506;2023-04-24T15:20:44;15.00;41.40
34873;DHT22;21084;51.098;14.506;2023-04-24T15:23:13;15.30;42.10
34873;DHT22;21084;51.098;14.506;2023-04-24T15:25:42;15.60;40.40
34873;DHT22;21084;51.098;14.506;2023-04-24T15:28:11;15.90;40.60
34873;DHT22;21084;51.098;14.506;2023-04-24T15:30:40;16.50;41.30
34873;DHT22;21084;51.098;14.506;2023-04-24T15:33:08;16.60;39.40